Accueil
METAR-TAF:

METAR-TAF

Aéroports :

Aéroport de Viterbe

Viterbe, Italie

latitude: 42-26N, longitude: 012-03E, altitude: 300 m

Observation

Le bulletin a été fait il y a 2 heures et 20 minutes, à 17:55 UTC
Vent 20 kt de nord-est
Température 6°C
Humidité 70%
Pression 1015 hPa
Visibilité 10 km ou plus
Quelques nuages à une hauteur de 2500 ft

METAR: LIRV 311755Z 04020KT 9999 FEW025 06/01 Q1015 RMK BKN BKN060 MON E SE LIB ELEV RAPID VIS MIN 9999 WIND THR04/////KT BLU

Heure: 22:15 (20:15 UTC)

Prévision

Le bulletin a été fait il y a 2 heures et 50 minutes, à 17:25 UTC
Prévision valable du 31 à 18 UTC au 01 à 03 UTC
Vent 22 kt de nord/nord-est
Visibilité 10 km ou plus
Nuages épars à une hauteur de 4000 ft

TAF: LIRV 311725Z 3118/0103 03022KT 9999 SCT040

Observations et prévisions météorologiques de plus de 4000 aéroports (messages METAR et TAF).

Les stations disponibles sont représentées par des disques jaunes et rouges sur la carte.

Passer la souris dessus pour voir le nom de la station.

Cliquer dessus pour voir les observations et prévisions météorologiques.

Pour changer de carte: cliquez sur les boutons verts avec une croix noire pour zoomer, sur le bouton vert avec un tiret pour effectuer un zoom arrière, ou sur les flèches vertes pour les cartes adjacentes.


METAR-TAF: